sensor_id;sensor_type;location;lat;lon;timestamp;pressure;altitude;pressure_sealevel;temperature
68911;BMP180;55953;51.650;-0.522;2023-12-28T00:00:27;99380.00;;;11.00
68911;BMP180;55953;51.650;-0.522;2023-12-28T00:03:15;99384.60;;;11.10
68911;BMP180;55953;51.650;-0.522;2023-12-28T00:05:44;99382.40;;;11.12
68911;BMP180;55953;51.650;-0.522;2023-12-28T00:08:12;99382.80;;;11.20
68911;BMP180;55953;51.650;-0.522;2023-12-28T00:10:40;99378.80;;;11.10
68911;BMP180;55953;51.650;-0.522;2023-12-28T00:13:08;99377.60;;;11.10
68911;BMP180;55953;51.650;-0.522;2023-12-28T00:15:35;99373.40;;;11.10
68911;BMP180;55953;51.650;-0.522;2023-12-28T00:18:04;99374.00;;;11.10
68911;BMP180;55953;51.650;-0.522;2023-12-28T00:20:32;99376.40;;;11.02
68911;BMP180;55953;51.650;-0.522;2023-12-28T00:23:00;99380.80;;;11.00
68911;BMP180;55953;51.650;-0.522;2023-12-28T00:25:28;99371.20;;;11.00
68911;BMP180;55953;51.650;-0.522;2023-12-28T00:27:56;99386.80;;;11.04
68911;BMP180;55953;51.650;-0.522;2023-12-28T00:30:24;99389.40;;;11.10
68911;BMP180;55953;51.650;-0.522;2023-12-28T00:32:53;99392.20;;;11.08
68911;BMP180;55953;51.650;-0.522;2023-12-28T00:35:21;99380.00;;;11.10
68911;BMP180;55953;51.650;-0.522;2023-12-28T00:37:49;99376.40;;;11.10
68911;BMP180;55953;51.650;-0.522;2023-12-28T00:40:17;99378.60;;;11.10
68911;BMP180;55953;51.650;-0.522;2023-12-28T00:42:45;99383.60;;;11.08
68911;BMP180;55953;51.650;-0.522;2023-12-28T00:45:13;99385.60;;;11.10
68911;BMP180;55953;51.650;-0.522;2023-12-28T00:47:41;99400.60;;;11.10
68911;BMP180;55953;51.650;-0.522;2023-12-28T00:50:11;99393.40;;;11.10
68911;BMP180;55953;51.650;-0.522;2023-12-28T00:52:44;99410.00;;;11.10
68911;BMP180;55953;51.650;-0.522;2023-12-28T00:55:13;99421.00;;;11.10
68911;BMP180;55953;51.650;-0.522;2023-12-28T00:57:41;99423.20;;;11.10
68911;BMP180;55953;51.650;-0.522;2023-12-28T01:00:09;99420.60;;;11.10
68911;BMP180;55953;51.650;-0.522;2023-12-28T01:02:38;99413.80;;;11.10
68911;BMP180;55953;51.650;-0.522;2023-12-28T01:05:06;99424.00;;;11.12
68911;BMP180;55953;51.650;-0.522;2023-12-28T01:07:34;99423.80;;;11.10
68911;BMP180;55953;51.650;-0.522;2023-12-28T01:10:03;99422.80;;;11.12
68911;BMP180;55953;51.650;-0.522;2023-12-28T01:12:31;99428.20;;;11.10
68911;BMP180;55953;51.650;-0.522;2023-12-28T01:14:59;99418.00;;;11.10
68911;BMP180;55953;51.650;-0.522;2023-12-28T01:17:28;99430.60;;;11.14
68911;BMP180;55953;51.650;-0.522;2023-12-28T01:19:56;99421.00;;;11.20
68911;BMP180;55953;51.650;-0.522;2023-12-28T01:22:23;99419.00;;;11.20
68911;BMP180;55953;51.650;-0.522;2023-12-28T01:24:51;99426.80;;;11.20
68911;BMP180;55953;51.650;-0.522;2023-12-28T01:27:20;99418.20;;;11.20
68911;BMP180;55953;51.650;-0.522;2023-12-28T01:29:48;99423.40;;;11.20
68911;BMP180;55953;51.650;-0.522;2023-12-28T01:32:16;99413.20;;;11.20
68911;BMP180;55953;51.650;-0.522;2023-12-28T01:34:43;99421.00;;;11.20
68911;BMP180;55953;51.650;-0.522;2023-12-28T01:37:13;99424.80;;;11.30
68911;BMP180;55953;51.650;-0.522;2023-12-28T01:39:41;99424.40;;;11.30
68911;BMP180;55953;51.650;-0.522;2023-12-28T01:42:09;99445.40;;;11.30
68911;BMP180;55953;51.650;-0.522;2023-12-28T01:44:37;99428.60;;;11.30
68911;BMP180;55953;51.650;-0.522;2023-12-28T01:47:06;99430.60;;;11.40
68911;BMP180;55953;51.650;-0.522;2023-12-28T01:49:35;99435.00;;;11.42
68911;BMP180;55953;51.650;-0.522;2023-12-28T01:52:04;99445.80;;;11.50
68911;BMP180;55953;51.650;-0.522;2023-12-28T01:54:35;99440.40;;;11.52
68911;BMP180;55953;51.650;-0.522;2023-12-28T01:57:04;99442.60;;;11.60
68911;BMP180;55953;51.650;-0.522;2023-12-28T01:59:33;99430.40;;;11.60
68911;BMP180;55953;51.650;-0.522;2023-12-28T02:02:01;99446.60;;;11.60
68911;BMP180;55953;51.650;-0.522;2023-12-28T02:04:30;99457.80;;;11.60
68911;BMP180;55953;51.650;-0.522;2023-12-28T02:07:00;99451.20;;;11.56
68911;BMP180;55953;51.650;-0.522;2023-12-28T02:09:28;99458.40;;;11.50
68911;BMP180;55953;51.650;-0.522;2023-12-28T02:11:56;99464.80;;;11.50
68911;BMP180;55953;51.650;-0.522;2023-12-28T02:14:25;99466.20;;;11.50
68911;BMP180;55953;51.650;-0.522;2023-12-28T02:17:22;99461.20;;;11.40
68911;BMP180;55953;51.650;-0.522;2023-12-28T02:19:54;99463.80;;;11.40
68911;BMP180;55953;51.650;-0.522;2023-12-28T02:22:25;99462.20;;;11.30
68911;BMP180;55953;51.650;-0.522;2023-12-28T02:25:12;99466.20;;;11.30
68911;BMP180;55953;51.650;-0.522;2023-12-28T02:27:47;99454.40;;;11.12
68911;BMP180;55953;51.650;-0.522;2023-12-28T02:30:18;99468.80;;;11.10
68911;BMP180;55953;51.650;-0.522;2023-12-28T02:33:29;99480.40;;;11.00
68911;BMP180;55953;51.650;-0.522;2023-12-28T02:36:09;99479.60;;;11.00
68911;BMP180;55953;51.650;-0.522;2023-12-28T02:38:40;99471.80;;;11.00
68911;BMP180;55953;51.650;-0.522;2023-12-28T02:41:11;99478.00;;;11.00
68911;BMP180;55953;51.650;-0.522;2023-12-28T02:43:40;99470.60;;;11.00
68911;BMP180;55953;51.650;-0.522;2023-12-28T02:46:08;99476.60;;;11.10
68911;BMP180;55953;51.650;-0.522;2023-12-28T02:48:36;99479.60;;;11.10
68911;BMP180;55953;51.650;-0.522;2023-12-28T02:51:04;99493.40;;;11.18
68911;BMP180;55953;51.650;-0.522;2023-12-28T02:53:32;99494.80;;;11.20
68911;BMP180;55953;51.650;-0.522;2023-12-28T02:56:01;99510.20;;;11.20
68911;BMP180;55953;51.650;-0.522;2023-12-28T02:58:29;99499.80;;;11.30
68911;BMP180;55953;51.650;-0.522;2023-12-28T03:00:57;99500.40;;;11.30
68911;BMP180;55953;51.650;-0.522;2023-12-28T03:03:25;99499.40;;;11.30
68911;BMP180;55953;51.650;-0.522;2023-12-28T03:05:53;99506.80;;;11.30
68911;BMP180;55953;51.650;-0.522;2023-12-28T03:08:21;99505.60;;;11.30
68911;BMP180;55953;51.650;-0.522;2023-12-28T03:10:50;99504.20;;;11.30
68911;BMP180;55953;51.650;-0.522;2023-12-28T03:13:20;99505.80;;;11.30
68911;BMP180;55953;51.650;-0.522;2023-12-28T03:15:48;99501.00;;;11.36
68911;BMP180;55953;51.650;-0.522;2023-12-28T03:18:16;99497.00;;;11.38
68911;BMP180;55953;51.650;-0.522;2023-12-28T03:20:44;99495.60;;;11.40
68911;BMP180;55953;51.650;-0.522;2023-12-28T03:23:12;99493.40;;;11.40
68911;BMP180;55953;51.650;-0.522;2023-12-28T03:25:40;99504.80;;;11.40
68911;BMP180;55953;51.650;-0.522;2023-12-28T03:28:08;99495.60;;;11.40
68911;BMP180;55953;51.650;-0.522;2023-12-28T03:30:36;99497.60;;;11.40
68911;BMP180;55953;51.650;-0.522;2023-12-28T03:33:06;99496.00;;;11.40
68911;BMP180;55953;51.650;-0.522;2023-12-28T03:35:34;99491.00;;;11.40
68911;BMP180;55953;51.650;-0.522;2023-12-28T03:38:02;99486.40;;;11.40
68911;BMP180;55953;51.650;-0.522;2023-12-28T03:40:30;99488.00;;;11.40
68911;BMP180;55953;51.650;-0.522;2023-12-28T03:42:58;99483.60;;;11.40
68911;BMP180;55953;51.650;-0.522;2023-12-28T03:45:27;99486.40;;;11.40
68911;BMP180;55953;51.650;-0.522;2023-12-28T03:47:55;99481.60;;;11.40
68911;BMP180;55953;51.650;-0.522;2023-12-28T03:50:24;99478.60;;;11.40
68911;BMP180;55953;51.650;-0.522;2023-12-28T03:52:51;99483.20;;;11.40
68911;BMP180;55953;51.650;-0.522;2023-12-28T03:55:19;99478.00;;;11.40
68911;BMP180;55953;51.650;-0.522;2023-12-28T03:57:47;99494.00;;;11.46
68911;BMP180;55953;51.650;-0.522;2023-12-28T04:00:15;99485.20;;;11.50
68911;BMP180;55953;51.650;-0.522;2023-12-28T04:02:44;99490.40;;;11.50
68911;BMP180;55953;51.650;-0.522;2023-12-28T04:05:12;99502.20;;;11.50
68911;BMP180;55953;51.650;-0.522;2023-12-28T04:07:40;99496.20;;;11.50
68911;BMP180;55953;51.650;-0.522;2023-12-28T04:10:08;99491.00;;;11.50
68911;BMP180;55953;51.650;-0.522;2023-12-28T04:12:37;99490.00;;;11.56
68911;BMP180;55953;51.650;-0.522;2023-12-28T04:15:06;99506.00;;;11.60
68911;BMP180;55953;51.650;-0.522;2023-12-28T04:17:34;99508.00;;;11.60
68911;BMP180;55953;51.650;-0.522;2023-12-28T04:20:02;99503.40;;;11.60
68911;BMP180;55953;51.650;-0.522;2023-12-28T04:22:31;99514.20;;;11.60
68911;BMP180;55953;51.650;-0.522;2023-12-28T04:24:59;99520.40;;;11.60
68911;BMP180;55953;51.650;-0.522;2023-12-28T04:27:27;99514.20;;;11.60
68911;BMP180;55953;51.650;-0.522;2023-12-28T04:29:55;99512.20;;;11.60
68911;BMP180;55953;51.650;-0.522;2023-12-28T04:32:23;99518.40;;;11.52
68911;BMP180;55953;51.650;-0.522;2023-12-28T04:34:52;99518.40;;;11.50
68911;BMP180;55953;51.650;-0.522;2023-12-28T04:37:20;99521.00;;;11.42
68911;BMP180;55953;51.650;-0.522;2023-12-28T04:39:48;99516.80;;;11.40
68911;BMP180;55953;51.650;-0.522;2023-12-28T04:42:17;99506.80;;;11.40
68911;BMP180;55953;51.650;-0.522;2023-12-28T04:44:45;99505.60;;;11.44
68911;BMP180;55953;51.650;-0.522;2023-12-28T04:47:13;99510.80;;;11.42
68911;BMP180;55953;51.650;-0.522;2023-12-28T04:49:41;99507.80;;;11.46
68911;BMP180;55953;51.650;-0.522;2023-12-28T04:52:09;99520.60;;;11.50
68911;BMP180;55953;51.650;-0.522;2023-12-28T04:54:40;99519.60;;;11.50
68911;BMP180;55953;51.650;-0.522;2023-12-28T04:57:08;99527.60;;;11.50
68911;BMP180;55953;51.650;-0.522;2023-12-28T04:59:40;99531.20;;;11.50
68911;BMP180;55953;51.650;-0.522;2023-12-28T05:02:08;99528.00;;;11.50
68911;BMP180;55953;51.650;-0.522;2023-12-28T05:04:37;99539.60;;;11.50
68911;BMP180;55953;51.650;-0.522;2023-12-28T05:07:08;99540.40;;;11.60
68911;BMP180;55953;51.650;-0.522;2023-12-28T05:09:36;99548.00;;;11.60
68911;BMP180;55953;51.650;-0.522;2023-12-28T05:12:05;99548.60;;;11.60
68911;BMP180;55953;51.650;-0.522;2023-12-28T05:14:33;99538.40;;;11.60
68911;BMP180;55953;51.650;-0.522;2023-12-28T05:17:01;99539.60;;;11.52
68911;BMP180;55953;51.650;-0.522;2023-12-28T05:19:28;99543.80;;;11.50
68911;BMP180;55953;51.650;-0.522;2023-12-28T05:21:57;99540.60;;;11.50
68911;BMP180;55953;51.650;-0.522;2023-12-28T05:24:25;99561.60;;;11.50
68911;BMP180;55953;51.650;-0.522;2023-12-28T05:26:52;99552.60;;;11.50
68911;BMP180;55953;51.650;-0.522;2023-12-28T05:29:20;99553.40;;;11.50
68911;BMP180;55953;51.650;-0.522;2023-12-28T05:31:48;99561.80;;;11.50
68911;BMP180;55953;51.650;-0.522;2023-12-28T05:34:16;99560.60;;;11.48
68911;BMP180;55953;51.650;-0.522;2023-12-28T05:36:44;99548.80;;;11.40
68911;BMP180;55953;51.650;-0.522;2023-12-28T05:39:13;99554.80;;;11.40
68911;BMP180;55953;51.650;-0.522;2023-12-28T05:41:41;99565.60;;;11.40
68911;BMP180;55953;51.650;-0.522;2023-12-28T05:44:09;99568.80;;;11.40
68911;BMP180;55953;51.650;-0.522;2023-12-28T05:46:37;99573.20;;;11.40
68911;BMP180;55953;51.650;-0.522;2023-12-28T05:49:05;99585.80;;;11.40
68911;BMP180;55953;51.650;-0.522;2023-12-28T05:51:40;99579.20;;;11.40
68911;BMP180;55953;51.650;-0.522;2023-12-28T05:54:09;99582.60;;;11.36
68911;BMP180;55953;51.650;-0.522;2023-12-28T05:56:37;99589.20;;;11.30
68911;BMP180;55953;51.650;-0.522;2023-12-28T05:59:05;99599.20;;;11.30
68911;BMP180;55953;51.650;-0.522;2023-12-28T06:01:41;99602.60;;;11.30
68911;BMP180;55953;51.650;-0.522;2023-12-28T06:04:10;99600.60;;;11.30
68911;BMP180;55953;51.650;-0.522;2023-12-28T06:06:39;99588.60;;;11.30
68911;BMP180;55953;51.650;-0.522;2023-12-28T06:09:07;99594.00;;;11.30
68911;BMP180;55953;51.650;-0.522;2023-12-28T06:11:35;99598.00;;;11.20
68911;BMP180;55953;51.650;-0.522;2023-12-28T06:14:03;99597.60;;;11.20
68911;BMP180;55953;51.650;-0.522;2023-12-28T06:16:32;99599.20;;;11.18
68911;BMP180;55953;51.650;-0.522;2023-12-28T06:19:02;99604.40;;;11.10
68911;BMP180;55953;51.650;-0.522;2023-12-28T06:21:30;99602.00;;;11.10
68911;BMP180;55953;51.650;-0.522;2023-12-28T06:23:59;99616.20;;;11.10
68911;BMP180;55953;51.650;-0.522;2023-12-28T06:26:27;99622.80;;;11.00
68911;BMP180;55953;51.650;-0.522;2023-12-28T06:28:55;99629.40;;;11.02
68911;BMP180;55953;51.650;-0.522;2023-12-28T06:31:23;99624.80;;;11.08
68911;BMP180;55953;51.650;-0.522;2023-12-28T06:33:51;99626.80;;;11.10
68911;BMP180;55953;51.650;-0.522;2023-12-28T06:36:19;99630.20;;;11.10
68911;BMP180;55953;51.650;-0.522;2023-12-28T06:38:47;99628.00;;;11.10
68911;BMP180;55953;51.650;-0.522;2023-12-28T06:41:15;99632.00;;;11.10
68911;BMP180;55953;51.650;-0.522;2023-12-28T06:43:43;99634.20;;;11.06
68911;BMP180;55953;51.650;-0.522;2023-12-28T06:46:11;99638.40;;;11.00
68911;BMP180;55953;51.650;-0.522;2023-12-28T06:48:39;99643.00;;;11.00
68911;BMP180;55953;51.650;-0.522;2023-12-28T06:51:09;99641.40;;;11.00
68911;BMP180;55953;51.650;-0.522;2023-12-28T06:53:38;99648.20;;;11.00
68911;BMP180;55953;51.650;-0.522;2023-12-28T06:56:07;99649.80;;;11.00
68911;BMP180;55953;51.650;-0.522;2023-12-28T06:58:35;99651.00;;;11.04
68911;BMP180;55953;51.650;-0.522;2023-12-28T07:01:04;99651.20;;;11.10
68911;BMP180;55953;51.650;-0.522;2023-12-28T07:03:33;99653.60;;;11.10
68911;BMP180;55953;51.650;-0.522;2023-12-28T07:06:02;99650.00;;;11.10
68911;BMP180;55953;51.650;-0.522;2023-12-28T07:08:31;99649.40;;;11.10
68911;BMP180;55953;51.650;-0.522;2023-12-28T07:11:03;99648.20;;;11.20
68911;BMP180;55953;51.650;-0.522;2023-12-28T07:13:32;99653.80;;;11.20
68911;BMP180;55953;51.650;-0.522;2023-12-28T07:16:00;99667.60;;;11.20
68911;BMP180;55953;51.650;-0.522;2023-12-28T07:18:29;99663.60;;;11.30
68911;BMP180;55953;51.650;-0.522;2023-12-28T07:20:58;99666.20;;;11.30
68911;BMP180;55953;51.650;-0.522;2023-12-28T07:23:26;99664.20;;;11.30
68911;BMP180;55953;51.650;-0.522;2023-12-28T07:25:55;99671.40;;;11.30
68911;BMP180;55953;51.650;-0.522;2023-12-28T07:28:23;99657.20;;;11.30
68911;BMP180;55953;51.650;-0.522;2023-12-28T07:30:51;99664.80;;;11.34
68911;BMP180;55953;51.650;-0.522;2023-12-28T07:33:19;99670.00;;;11.40
68911;BMP180;55953;51.650;-0.522;2023-12-28T07:35:47;99665.00;;;11.38
68911;BMP180;55953;51.650;-0.522;2023-12-28T07:38:15;99662.60;;;11.32
68911;BMP180;55953;51.650;-0.522;2023-12-28T07:40:43;99677.60;;;11.30
68911;BMP180;55953;51.650;-0.522;2023-12-28T07:43:12;99683.60;;;11.30
68911;BMP180;55953;51.650;-0.522;2023-12-28T07:45:39;99683.20;;;11.30
68911;BMP180;55953;51.650;-0.522;2023-12-28T07:48:09;99674.60;;;11.30
68911;BMP180;55953;51.650;-0.522;2023-12-28T07:50:38;99689.20;;;11.30
68911;BMP180;55953;51.650;-0.522;2023-12-28T07:53:05;99683.20;;;11.30
68911;BMP180;55953;51.650;-0.522;2023-12-28T07:55:33;99686.00;;;11.30
68911;BMP180;55953;51.650;-0.522;2023-12-28T07:58:01;99687.00;;;11.30
68911;BMP180;55953;51.650;-0.522;2023-12-28T08:00:30;99681.00;;;11.30
68911;BMP180;55953;51.650;-0.522;2023-12-28T08:02:58;99691.60;;;11.28
68911;BMP180;55953;51.650;-0.522;2023-12-28T08:05:26;99681.80;;;11.22
68911;BMP180;55953;51.650;-0.522;2023-12-28T08:07:54;99686.40;;;11.20
68911;BMP180;55953;51.650;-0.522;2023-12-28T08:10:22;99691.00;;;11.20
68911;BMP180;55953;51.650;-0.522;2023-12-28T08:12:50;99701.60;;;11.20
68911;BMP180;55953;51.650;-0.522;2023-12-28T08:15:18;99695.40;;;11.20
68911;BMP180;55953;51.650;-0.522;2023-12-28T08:17:46;99704.20;;;11.20
68911;BMP180;55953;51.650;-0.522;2023-12-28T08:20:14;99701.00;;;11.20
68911;BMP180;55953;51.650;-0.522;2023-12-28T08:22:42;99701.40;;;11.20
68911;BMP180;55953;51.650;-0.522;2023-12-28T08:25:10;99700.00;;;11.20
68911;BMP180;55953;51.650;-0.522;2023-12-28T08:27:38;99696.20;;;11.28
68911;BMP180;55953;51.650;-0.522;2023-12-28T08:30:07;99692.80;;;11.30
68911;BMP180;55953;51.650;-0.522;2023-12-28T08:32:35;99691.20;;;11.30
68911;BMP180;55953;51.650;-0.522;2023-12-28T08:35:03;99686.40;;;11.30
68911;BMP180;55953;51.650;-0.522;2023-12-28T08:37:33;99683.00;;;11.30
68911;BMP180;55953;51.650;-0.522;2023-12-28T08:40:00;99682.40;;;11.30
68911;BMP180;55953;51.650;-0.522;2023-12-28T08:42:29;99689.00;;;11.26
68911;BMP180;55953;51.650;-0.522;2023-12-28T08:44:57;99687.80;;;11.20
68911;BMP180;55953;51.650;-0.522;2023-12-28T08:47:25;99680.60;;;11.22
68911;BMP180;55953;51.650;-0.522;2023-12-28T08:49:53;99688.80;;;11.30
68911;BMP180;55953;51.650;-0.522;2023-12-28T08:52:21;99699.80;;;11.30
68911;BMP180;55953;51.650;-0.522;2023-12-28T08:54:49;99696.20;;;11.30
68911;BMP180;55953;51.650;-0.522;2023-12-28T08:57:17;99699.20;;;11.30
68911;BMP180;55953;51.650;-0.522;2023-12-28T09:00:05;99699.20;;;11.30
68911;BMP180;55953;51.650;-0.522;2023-12-28T09:02:34;99703.80;;;11.30
68911;BMP180;55953;51.650;-0.522;2023-12-28T09:05:02;99707.20;;;11.20
68911;BMP180;55953;51.650;-0.522;2023-12-28T09:07:30;99711.80;;;11.20
68911;BMP180;55953;51.650;-0.522;2023-12-28T09:09:58;99712.60;;;11.20
68911;BMP180;55953;51.650;-0.522;2023-12-28T09:12:26;99715.00;;;11.10
68911;BMP180;55953;51.650;-0.522;2023-12-28T09:14:54;99728.40;;;11.10
68911;BMP180;55953;51.650;-0.522;2023-12-28T09:17:23;99732.60;;;11.10
68911;BMP180;55953;51.650;-0.522;2023-12-28T09:19:51;99739.80;;;11.00
68911;BMP180;55953;51.650;-0.522;2023-12-28T09:22:19;99744.60;;;11.00
68911;BMP180;55953;51.650;-0.522;2023-12-28T09:24:47;99749.00;;;10.92
68911;BMP180;55953;51.650;-0.522;2023-12-28T09:27:15;99740.60;;;10.92
68911;BMP180;55953;51.650;-0.522;2023-12-28T09:29:43;99741.40;;;10.92
68911;BMP180;55953;51.650;-0.522;2023-12-28T09:32:11;99750.00;;;10.98
68911;BMP180;55953;51.650;-0.522;2023-12-28T09:34:40;99743.00;;;11.00
68911;BMP180;55953;51.650;-0.522;2023-12-28T09:37:08;99740.20;;;11.00
68911;BMP180;55953;51.650;-0.522;2023-12-28T09:39:36;99743.20;;;11.10
68911;BMP180;55953;51.650;-0.522;2023-12-28T09:42:11;99742.80;;;11.10
68911;BMP180;55953;51.650;-0.522;2023-12-28T09:44:43;99741.00;;;11.10
68911;BMP180;55953;51.650;-0.522;2023-12-28T09:47:12;99747.60;;;11.10
68911;BMP180;55953;51.650;-0.522;2023-12-28T09:49:41;99741.60;;;11.10
68911;BMP180;55953;51.650;-0.522;2023-12-28T09:52:10;99739.00;;;11.10
68911;BMP180;55953;51.650;-0.522;2023-12-28T09:54:39;99740.60;;;11.10
68911;BMP180;55953;51.650;-0.522;2023-12-28T09:57:07;99738.00;;;11.14
68911;BMP180;55953;51.650;-0.522;2023-12-28T09:59:38;99729.80;;;11.20
68911;BMP180;55953;51.650;-0.522;2023-12-28T10:02:06;99735.80;;;11.26
68911;BMP180;55953;51.650;-0.522;2023-12-28T10:04:36;99742.40;;;11.30
68911;BMP180;55953;51.650;-0.522;2023-12-28T10:07:05;99747.60;;;11.40
68911;BMP180;55953;51.650;-0.522;2023-12-28T10:09:32;99741.40;;;11.40
68911;BMP180;55953;51.650;-0.522;2023-12-28T10:12:00;99743.60;;;11.50
68911;BMP180;55953;51.650;-0.522;2023-12-28T10:14:31;99735.20;;;11.50
68911;BMP180;55953;51.650;-0.522;2023-12-28T10:16:59;99728.60;;;11.54
68911;BMP180;55953;51.650;-0.522;2023-12-28T10:19:27;99734.60;;;11.50
68911;BMP180;55953;51.650;-0.522;2023-12-28T10:21:55;99739.20;;;11.54
68911;BMP180;55953;51.650;-0.522;2023-12-28T10:24:23;99743.40;;;11.60
68911;BMP180;55953;51.650;-0.522;2023-12-28T10:26:52;99743.40;;;11.70
68911;BMP180;55953;51.650;-0.522;2023-12-28T10:29:24;99740.00;;;11.78
68911;BMP180;55953;51.650;-0.522;2023-12-28T10:31:53;99732.00;;;11.80
68911;BMP180;55953;51.650;-0.522;2023-12-28T10:34:22;99724.00;;;11.90
68911;BMP180;55953;51.650;-0.522;2023-12-28T10:36:52;99724.20;;;12.00
68911;BMP180;55953;51.650;-0.522;2023-12-28T10:39:23;99725.00;;;12.00
68911;BMP180;55953;51.650;-0.522;2023-12-28T10:41:55;99726.80;;;12.10
68911;BMP180;55953;51.650;-0.522;2023-12-28T10:44:28;99729.40;;;12.10
68911;BMP180;55953;51.650;-0.522;2023-12-28T10:47:02;99720.60;;;12.20
68911;BMP180;55953;51.650;-0.522;2023-12-28T10:49:36;99716.00;;;12.30
68911;BMP180;55953;51.650;-0.522;2023-12-28T10:52:07;99712.20;;;12.30
68911;BMP180;55953;51.650;-0.522;2023-12-28T10:55:14;99712.80;;;12.40
68911;BMP180;55953;51.650;-0.522;2023-12-28T10:57:52;99715.40;;;12.40
68911;BMP180;55953;51.650;-0.522;2023-12-28T11:00:30;99711.20;;;12.36
68911;BMP180;55953;51.650;-0.522;2023-12-28T11:03:03;99705.80;;;12.34
68911;BMP180;55953;51.650;-0.522;2023-12-28T11:05:35;99706.00;;;12.30
68911;BMP180;55953;51.650;-0.522;2023-12-28T11:08:05;99713.40;;;12.30
68911;BMP180;55953;51.650;-0.522;2023-12-28T11:10:36;99715.40;;;12.20
68911;BMP180;55953;51.650;-0.522;2023-12-28T11:13:05;99711.80;;;12.20
68911;BMP180;55953;51.650;-0.522;2023-12-28T11:15:34;99705.20;;;12.30
68911;BMP180;55953;51.650;-0.522;2023-12-28T11:18:03;99696.20;;;12.22
68911;BMP180;55953;51.650;-0.522;2023-12-28T11:20:32;99686.40;;;12.20
68911;BMP180;55953;51.650;-0.522;2023-12-28T11:23:01;99681.40;;;12.20
68911;BMP180;55953;51.650;-0.522;2023-12-28T11:25:31;99681.00;;;12.20
68911;BMP180;55953;51.650;-0.522;2023-12-28T11:28:09;99679.80;;;12.20
68911;BMP180;55953;51.650;-0.522;2023-12-28T11:30:38;99674.40;;;12.30
68911;BMP180;55953;51.650;-0.522;2023-12-28T11:33:06;99656.00;;;12.30
68911;BMP180;55953;51.650;-0.522;2023-12-28T11:35:47;99656.80;;;12.30
68911;BMP180;55953;51.650;-0.522;2023-12-28T11:38:17;99646.40;;;12.40
68911;BMP180;55953;51.650;-0.522;2023-12-28T11:40:46;99648.60;;;12.40
68911;BMP180;55953;51.650;-0.522;2023-12-28T11:43:20;99651.80;;;12.50
68911;BMP180;55953;51.650;-0.522;2023-12-28T11:45:55;99652.60;;;12.48
68911;BMP180;55953;51.650;-0.522;2023-12-28T11:48:27;99654.00;;;12.46
68911;BMP180;55953;51.650;-0.522;2023-12-28T11:51:00;99660.00;;;12.50
68911;BMP180;55953;51.650;-0.522;2023-12-28T11:53:28;99649.00;;;12.50
68911;BMP180;55953;51.650;-0.522;2023-12-28T11:56:00;99648.60;;;12.40
68911;BMP180;55953;51.650;-0.522;2023-12-28T11:58:33;99635.00;;;12.30
68911;BMP180;55953;51.650;-0.522;2023-12-28T12:01:02;99633.60;;;12.20
68911;BMP180;55953;51.650;-0.522;2023-12-28T12:03:31;99632.40;;;12.10
68911;BMP180;55953;51.650;-0.522;2023-12-28T12:05:59;99638.40;;;12.00
68911;BMP180;55953;51.650;-0.522;2023-12-28T12:08:27;99634.20;;;12.00
68911;BMP180;55953;51.650;-0.522;2023-12-28T12:11:21;99633.40;;;11.90
68911;BMP180;55953;51.650;-0.522;2023-12-28T12:13:51;99628.00;;;11.90
68911;BMP180;55953;51.650;-0.522;2023-12-28T12:16:19;99621.00;;;11.90
68911;BMP180;55953;51.650;-0.522;2023-12-28T12:18:48;99622.20;;;11.90
68911;BMP180;55953;51.650;-0.522;2023-12-28T12:21:17;99612.40;;;11.90
68911;BMP180;55953;51.650;-0.522;2023-12-28T12:23:46;99614.40;;;12.00
68911;BMP180;55953;51.650;-0.522;2023-12-28T12:26:17;99604.00;;;11.98
68911;BMP180;55953;51.650;-0.522;2023-12-28T12:28:46;99613.00;;;11.92
68911;BMP180;55953;51.650;-0.522;2023-12-28T12:31:14;99609.00;;;11.90
68911;BMP180;55953;51.650;-0.522;2023-12-28T12:33:43;99610.40;;;12.00
68911;BMP180;55953;51.650;-0.522;2023-12-28T12:36:11;99616.40;;;12.00
68911;BMP180;55953;51.650;-0.522;2023-12-28T12:38:40;99610.60;;;12.00
68911;BMP180;55953;51.650;-0.522;2023-12-28T12:41:10;99597.00;;;12.00
68911;BMP180;55953;51.650;-0.522;2023-12-28T12:43:42;99610.80;;;12.00
68911;BMP180;55953;51.650;-0.522;2023-12-28T12:46:10;99609.00;;;12.10
68911;BMP180;55953;51.650;-0.522;2023-12-28T12:48:39;99609.40;;;12.10
68911;BMP180;55953;51.650;-0.522;2023-12-28T12:51:08;99610.40;;;12.10
68911;BMP180;55953;51.650;-0.522;2023-12-28T12:53:36;99598.60;;;12.20
68911;BMP180;55953;51.650;-0.522;2023-12-28T12:56:05;99595.60;;;12.22
68911;BMP180;55953;51.650;-0.522;2023-12-28T12:58:33;99592.00;;;12.30
68911;BMP180;55953;51.650;-0.522;2023-12-28T13:01:04;99584.20;;;12.34
68911;BMP180;55953;51.650;-0.522;2023-12-28T13:03:32;99576.60;;;12.40
68911;BMP180;55953;51.650;-0.522;2023-12-28T13:06:00;99583.40;;;12.50
68911;BMP180;55953;51.650;-0.522;2023-12-28T13:08:32;99591.60;;;12.56
68911;BMP180;55953;51.650;-0.522;2023-12-28T13:11:00;99586.00;;;12.60
68911;BMP180;55953;51.650;-0.522;2023-12-28T13:13:27;99573.00;;;12.60
68911;BMP180;55953;51.650;-0.522;2023-12-28T13:15:55;99585.00;;;12.60
68911;BMP180;55953;51.650;-0.522;2023-12-28T13:18:24;99578.00;;;12.60
68911;BMP180;55953;51.650;-0.522;2023-12-28T13:20:52;99560.20;;;12.58
68911;BMP180;55953;51.650;-0.522;2023-12-28T13:23:20;99574.20;;;12.52
68911;BMP180;55953;51.650;-0.522;2023-12-28T13:25:48;99565.20;;;12.50
68911;BMP180;55953;51.650;-0.522;2023-12-28T13:28:16;99564.80;;;12.44
68911;BMP180;55953;51.650;-0.522;2023-12-28T13:30:44;99563.60;;;12.30
68911;BMP180;55953;51.650;-0.522;2023-12-28T13:33:12;99558.40;;;12.20
68911;BMP180;55953;51.650;-0.522;2023-12-28T13:35:40;99564.20;;;12.08
68911;BMP180;55953;51.650;-0.522;2023-12-28T13:38:08;99555.00;;;12.00
68911;BMP180;55953;51.650;-0.522;2023-12-28T13:40:36;99569.00;;;11.90
68911;BMP180;55953;51.650;-0.522;2023-12-28T13:43:04;99563.20;;;11.90
68911;BMP180;55953;51.650;-0.522;2023-12-28T13:45:32;99558.20;;;11.82
68911;BMP180;55953;51.650;-0.522;2023-12-28T13:48:00;99558.00;;;11.80
68911;BMP180;55953;51.650;-0.522;2023-12-28T13:50:28;99554.40;;;11.70
68911;BMP180;55953;51.650;-0.522;2023-12-28T13:52:56;99542.00;;;11.70
68911;BMP180;55953;51.650;-0.522;2023-12-28T13:55:25;99547.20;;;11.70
68911;BMP180;55953;51.650;-0.522;2023-12-28T13:57:52;99533.20;;;11.70
68911;BMP180;55953;51.650;-0.522;2023-12-28T14:00:21;99545.20;;;11.70
68911;BMP180;55953;51.650;-0.522;2023-12-28T14:02:49;99555.80;;;11.80
68911;BMP180;55953;51.650;-0.522;2023-12-28T14:05:17;99551.20;;;11.82
68911;BMP180;55953;51.650;-0.522;2023-12-28T14:07:45;99548.00;;;11.90